X  Chiuso Dati meteorologici dell'aviazione (METAR)     LIMC Malpensa International Airport
Temperatura
4°C Temperatura
0°C Punto di rugiada
75% Umidità



Vento
19 KM/O
12 MPH
5 M/S
10 KTS



330°
NNO
Condizioni attuali

Chiaro Chiaro
Pressione 1015.92 (hPa) - 30 (inHg)
Visibilità 6.2 (miglio) - 10 (km)
Aeroporto
Codice-Aeroporto LIMC

Posizione: Malpensa International Airport
Distanza: 50 (km)

Metar:
LIMC 302120Z 33010KT 270V020 CAVOK 04/M00 Q1016 NOSIG

Ore: 30-01-2023 22:20 CET